Time;durP1;ratioP1;P1;durP2;ratioP2;P2;SDS_P1;SDS_P2;PMS_P1;PMS_P2;Temp;Humidity;BMP_temperature;BMP_pressure;BME280_temperature;BME280_humidity;BME280_pressure;Samples;Min_cycle;Max_cycle;Signal;HPM_P1;HPM_P2
2022/05/15 00:01:32;;;;;;;7.50;2.70;;;;;;;10.64;65.88;99288.05;108429;1282;138942;-63
2022/05/15 00:04:01;;;;;;;7.60;2.70;;;;;;;10.61;65.91;99287.32;108568;1283;22392;-65
2022/05/15 00:06:29;;;;;;;4.80;2.40;;;;;;;10.58;66.00;99286.86;108452;1283;137587;-65
2022/05/15 00:08:58;;;;;;;4.50;2.10;;;;;;;10.56;66.20;99286.57;108653;1282;22319;-64
2022/05/15 00:11:26;;;;;;;5.40;2.40;;;;;;;10.51;66.07;99285.69;108552;1282;139427;-63
2022/05/15 00:13:56;;;;;;;9.00;2.80;;;;;;;10.46;66.19;99284.66;108648;1282;22437;-64
2022/05/15 00:16:25;;;;;;;5.20;2.70;;;;;;;10.39;66.43;99286.52;108649;1282;22461;-64
2022/05/15 00:18:53;;;;;;;8.30;2.80;;;;;;;10.28;66.52;99286.52;108585;1282;138839;-64
2022/05/15 00:21:21;;;;;;;9.20;4.20;;;;;;;10.18;66.76;99287.25;108668;1282;23187;-64
2022/05/15 00:23:50;;;;;;;8.70;4.30;;;;;;;10.09;66.95;99287.96;108557;1282;139450;-65
2022/05/15 00:26:18;;;;;;;11.80;4.50;;;;;;;10.01;67.16;99292.59;106613;1283;22721;-64
2022/05/15 00:28:50;;;;;;;15.40;5.90;;;;;;;9.96;67.55;99291.08;104372;1283;22724;-64
2022/05/15 00:31:18;;;;;;;14.00;5.60;;;;;;;9.91;67.63;99290.17;104255;1283;138240;-64
2022/05/15 00:33:46;;;;;;;13.70;5.60;;;;;;;9.85;67.79;99286.90;108690;1282;22442;-65
2022/05/15 00:36:15;;;;;;;9.50;4.90;;;;;;;9.83;67.99;99289.65;108388;1283;140176;-64
2022/05/15 00:38:43;;;;;;;9.40;4.20;;;;;;;9.78;68.20;99286.58;108731;1283;22398;-64
2022/05/15 00:41:14;;;;;;;11.10;4.50;;;;;;;9.75;68.33;99287.36;108674;1282;22439;-64
2022/05/15 00:43:45;;;;;;;7.20;3.20;;;;;;;9.70;68.46;99284.48;108542;1282;138610;-64
2022/05/15 00:46:18;;;;;;;8.10;4.10;;;;;;;9.70;68.71;99288.51;108651;1283;22476;-65
2022/05/15 00:48:47;;;;;;;8.80;4.40;;;;;;;9.68;68.79;99278.13;108583;1282;138132;-65
2022/05/15 00:51:37;;;;;;;20.20;7.20;;;;;;;9.67;68.82;99281.40;108722;1282;22289;-64
2022/05/15 00:54:27;;;;;;;21.20;8.60;;;;;;;9.65;69.03;99282.05;108464;1283;138263;-64
2022/05/15 00:57:19;;;;;;;24.10;9.20;;;;;;;9.63;69.25;99281.81;108540;1282;22552;-65
2022/05/15 00:59:58;;;;;;;22.40;9.90;;;;;;;9.62;69.19;99280.29;108553;1282;138891;-65
2022/05/15 01:02:28;;;;;;;26.20;8.80;;;;;;;9.61;69.33;99279.13;108514;1283;23077;-65
2022/05/15 01:04:57;;;;;;;19.10;8.80;;;;;;;9.59;69.45;99279.33;109136;1277;22394;-65
2022/05/15 01:07:26;;;;;;;14.60;6.80;;;;;;;9.57;69.53;99280.83;109181;1275;138442;-64
2022/05/15 01:09:54;;;;;;;8.40;4.10;;;;;;;9.55;69.64;99280.95;109403;1274;22392;-64
2022/05/15 01:12:23;;;;;;;9.00;4.40;;;;;;;9.51;69.62;99284.27;109228;1274;137622;-64
2022/05/15 01:14:51;;;;;;;10.60;4.10;;;;;;;9.48;69.76;99281.34;109395;1274;23243;-65
2022/05/15 01:17:19;;;;;;;12.60;4.60;;;;;;;9.45;69.86;99280.10;109277;1274;23519;-65
2022/05/15 01:19:47;;;;;;;15.40;5.20;;;;;;;9.41;70.05;99282.51;109124;1276;137713;-65
2022/05/15 01:22:16;;;;;;;14.80;6.00;;;;;;;9.38;70.36;99277.80;109305;1275;22405;-64
2022/05/15 01:24:44;;;;;;;13.70;6.00;;;;;;;9.34;70.71;99266.52;109212;1275;138024;-65
2022/05/15 01:27:13;;;;;;;15.20;6.50;;;;;;;9.34;70.91;99267.27;109355;1276;22514;-65
2022/05/15 01:29:45;;;;;;;15.50;6.50;;;;;;;9.34;71.12;99266.29;109224;1275;138214;-65
2022/05/15 01:32:16;;;;;;;16.80;5.70;;;;;;;9.33;71.33;99265.04;109219;1276;22541;-65
2022/05/15 01:34:44;;;;;;;14.40;6.00;;;;;;;9.32;71.52;99263.23;109256;1275;22431;-65
2022/05/15 01:37:12;;;;;;;13.60;6.10;;;;;;;9.30;71.59;99261.14;109123;1276;140659;-64
2022/05/15 01:39:42;;;;;;;10.80;5.10;;;;;;;9.27;71.61;99255.17;109116;1276;22559;-65
2022/05/15 01:42:10;;;;;;;11.70;5.40;;;;;;;9.20;71.74;99252.73;108928;1279;138874;-64
2022/05/15 01:44:38;;;;;;;9.80;4.50;;;;;;;9.13;72.02;99256.27;109130;1278;22421;-64
2022/05/15 01:47:07;;;;;;;8.20;4.00;;;;;;;9.09;72.15;99255.38;109093;1278;22408;-65
2022/05/15 01:49:36;;;;;;;11.80;4.80;;;;;;;9.06;72.41;99256.09;108932;1279;138943;-64
2022/05/15 01:52:04;;;;;;;17.10;6.00;;;;;;;9.03;72.64;99249.48;109084;1278;23288;-64
2022/05/15 01:54:34;;;;;;;9.80;5.00;;;;;;;8.99;72.82;99252.26;109029;1277;139560;-64
2022/05/15 01:57:03;;;;;;;10.00;5.40;;;;;;;8.96;72.81;99249.55;109225;1276;22436;-65
2022/05/15 01:59:31;;;;;;;10.70;4.80;;;;;;;8.94;73.02;99249.77;109096;1276;139214;-64
2022/05/15 02:01:58;;;;;;;12.10;5.40;;;;;;;8.91;73.27;99245.54;109118;1276;23179;-64
2022/05/15 02:04:27;;;;;;;10.80;5.30;;;;;;;8.85;73.26;99246.93;109272;1276;22440;-62
2022/05/15 02:06:55;;;;;;;9.90;4.60;;;;;;;8.81;73.51;99244.38;109082;1276;138468;-62
2022/05/15 02:09:25;;;;;;;7.10;3.60;;;;;;;8.80;73.84;99245.73;109258;1276;22430;-64
2022/05/15 02:11:55;;;;;;;8.90;3.70;;;;;;;8.79;74.36;99242.46;108890;1277;139260;-64
2022/05/15 02:14:23;;;;;;;9.10;4.20;;;;;;;8.80;74.64;99235.14;109112;1277;22495;-64
2022/05/15 02:16:54;;;;;;;8.50;4.30;;;;;;;8.81;75.05;99238.02;109122;1277;22460;-65
2022/05/15 02:19:22;;;;;;;8.90;3.70;;;;;;;8.82;75.16;99235.65;108987;1277;139028;-64
2022/05/15 02:21:50;;;;;;;7.10;3.70;;;;;;;8.84;75.44;99233.22;109245;1276;22939;-64
2022/05/15 02:24:19;;;;;;;9.00;4.10;;;;;;;8.86;75.43;99232.92;108999;1276;139017;-64
2022/05/15 02:26:47;;;;;;;7.40;3.80;;;;;;;8.85;75.50;99230.14;109182;1277;22475;-64
2022/05/15 02:29:15;;;;;;;9.10;4.10;;;;;;;8.85;75.50;99229.93;109204;1276;22444;-65
2022/05/15 02:31:44;;;;;;;9.20;3.20;;;;;;;8.85;75.59;99231.81;108954;1277;137643;-64
2022/05/15 02:34:12;;;;;;;10.40;3.40;;;;;;;8.85;75.91;99230.85;109350;1274;22432;-64
2022/05/15 02:36:40;;;;;;;6.10;3.40;;;;;;;8.87;75.97;99232.89;106381;1276;139249;-63
2022/05/15 02:39:09;;;;;;;6.50;3.30;;;;;;;8.89;76.22;99236.65;104877;1277;25276;-64
2022/05/15 02:41:38;;;;;;;8.00;3.90;;;;;;;8.90;76.40;99237.76;109248;1274;140153;-64
2022/05/15 02:44:07;;;;;;;9.40;4.70;;;;;;;8.92;76.52;99245.55;109348;1274;22436;-65
2022/05/15 02:46:36;;;;;;;15.80;6.10;;;;;;;8.94;76.82;99251.66;109440;1274;23571;-63
2022/05/15 02:51:51;;;;;;;17.20;7.50;;;;;;;9.01;77.20;99260.05;109402;1274;22936;-62
2022/05/15 02:54:19;;;;;;;10.60;5.90;;;;;;;9.05;77.51;99263.31;109062;1276;138320;-63
2022/05/15 02:56:49;;;;;;;8.90;5.60;;;;;;;9.09;77.68;99266.02;109447;1274;22467;-63
2022/05/15 02:59:17;;;;;;;7.90;5.00;;;;;;;9.13;77.80;99272.41;109429;1274;22495;-63
2022/05/15 03:01:45;;;;;;;10.10;4.20;;;;;;;9.17;77.92;99265.57;109299;1274;138387;-63
2022/05/15 03:04:13;;;;;;;6.20;3.90;;;;;;;9.22;77.92;99268.73;109326;1274;22449;-63
2022/05/15 03:06:41;;;;;;;9.60;4.50;;;;;;;9.27;77.92;99272.73;109239;1275;137957;-63
2022/05/15 03:09:09;;;;;;;9.50;4.30;;;;;;;9.33;77.92;99266.44;109356;1274;22457;-63
2022/05/15 03:11:39;;;;;;;9.00;4.00;;;;;;;9.38;77.89;99270.08;109203;1274;139497;-63
2022/05/15 03:14:07;;;;;;;12.60;4.70;;;;;;;9.42;77.74;99269.90;109300;1274;22432;-63
2022/05/15 03:16:36;;;;;;;12.50;5.00;;;;;;;9.45;77.73;99275.48;109403;1274;23179;-63
2022/05/15 03:19:04;;;;;;;17.10;6.80;;;;;;;9.49;77.61;99274.34;109224;1275;138854;-63
2022/05/15 03:21:32;;;;;;;10.30;5.70;;;;;;;9.53;77.63;99272.13;109422;1274;22520;-62
2022/05/15 03:24:04;;;;;;;9.40;4.40;;;;;;;9.58;77.56;99274.58;109098;1276;139995;-63
2022/05/15 03:26:35;;;;;;;8.60;3.90;;;;;;;9.63;77.44;99267.02;109420;1274;22710;-63
2022/05/15 03:29:03;;;;;;;7.20;3.80;;;;;;;9.67;77.28;99272.05;109416;1274;22467;-63
2022/05/15 03:31:35;;;;;;;9.20;3.70;;;;;;;9.71;77.10;99271.21;109286;1274;139053;-63
2022/05/15 03:34:04;;;;;;;7.20;3.20;;;;;;;9.76;77.11;99272.02;109422;1274;23565;-63
2022/05/15 03:36:32;;;;;;;8.20;3.70;;;;;;;9.80;77.05;99273.60;109178;1274;139568;-64
2022/05/15 03:39:01;;;;;;;7.20;3.80;;;;;;;9.85;76.89;99277.32;109222;1277;22922;-63
2022/05/15 03:41:29;;;;;;;7.20;3.80;;;;;;;9.89;76.74;99277.79;109180;1274;139763;-63
2022/05/15 03:43:57;;;;;;;6.70;3.70;;;;;;;9.92;76.62;99272.87;109241;1276;22445;-63
2022/05/15 03:46:25;;;;;;;11.10;4.80;;;;;;;9.95;76.38;99272.45;109422;1274;22418;-63
2022/05/15 03:48:54;;;;;;;6.30;3.40;;;;;;;9.98;76.27;99279.77;109299;1274;139853;-63
2022/05/15 03:51:22;;;;;;;12.40;3.90;;;;;;;10.02;76.17;99271.85;109422;1274;22510;-63
2022/05/15 03:53:51;;;;;;;10.50;4.00;;;;;;;10.06;75.97;99274.25;109115;1274;138837;-63
2022/05/15 03:56:49;;;;;;;7.10;3.90;;;;;;;10.10;76.02;99273.98;109338;1274;22224;-63
2022/05/15 03:59:08;;;;;;;9.20;4.00;;;;;;;10.13;75.87;99269.81;109325;1274;22396;-63
2022/05/15 04:01:35;;;;;;;13.30;3.90;;;;;;;10.13;75.64;99270.53;109310;1274;138365;-63
2022/05/15 04:04:04;;;;;;;19.80;4.60;;;;;;;10.18;75.46;99283.39;109372;1274;22412;-63
2022/05/15 04:06:33;;;;;;;11.40;4.50;;;;;;;10.21;75.48;99290.11;109291;1274;138797;-63
2022/05/15 04:09:02;;;;;;;11.80;3.90;;;;;;;10.21;75.54;99287.78;109395;1274;23235;-63
2022/05/15 04:11:32;;;;;;;11.40;3.50;;;;;;;10.23;75.33;99286.10;109215;1274;138738;-63
2022/05/15 04:14:00;;;;;;;13.40;3.90;;;;;;;10.24;75.37;99286.11;109426;1274;22603;-63
2022/05/15 04:16:29;;;;;;;7.80;3.70;;;;;;;10.25;75.19;99285.29;109340;1274;22498;-63
2022/05/15 04:18:57;;;;;;;8.90;3.50;;;;;;;10.26;75.06;99285.84;109302;1274;139224;-63
2022/05/15 04:21:25;;;;;;;15.80;5.40;;;;;;;10.27;75.03;99289.06;109368;1274;24330;-63
2022/05/15 04:23:54;;;;;;;8.50;4.00;;;;;;;10.31;75.11;99292.79;109218;1274;139586;-63
2022/05/15 04:26:22;;;;;;;8.60;4.20;;;;;;;10.33;74.91;99288.78;109317;1275;22433;-63
2022/05/15 04:28:50;;;;;;;11.70;4.00;;;;;;;10.35;74.83;99286.84;109374;1274;22401;-63
2022/05/15 04:31:18;;;;;;;8.50;3.90;;;;;;;10.37;74.63;99285.83;109189;1274;139098;-63
2022/05/15 04:33:46;;;;;;;9.40;4.40;;;;;;;10.40;74.56;99287.95;109354;1274;22232;-63
2022/05/15 04:36:17;;;;;;;8.00;4.20;;;;;;;10.43;74.64;99290.20;109305;1274;138025;-63
2022/05/15 04:38:46;;;;;;;6.30;3.70;;;;;;;10.46;74.69;99286.59;109405;1274;22405;-63
2022/05/15 04:41:14;;;;;;;5.70;3.50;;;;;;;10.51;74.47;99280.78;109446;1274;23742;-63
2022/05/15 04:43:42;;;;;;;6.30;3.50;;;;;;;10.55;74.45;99279.21;109275;1274;139736;-63
2022/05/15 04:46:10;;;;;;;10.00;4.10;;;;;;;10.60;74.35;99278.60;109423;1274;22434;-63
2022/05/15 04:48:38;;;;;;;10.10;3.80;;;;;;;10.65;74.17;99276.94;109317;1274;139380;-63
2022/05/15 04:51:06;;;;;;;10.30;3.80;;;;;;;10.70;74.03;99284.19;109421;1274;23262;-63
2022/05/15 04:53:35;;;;;;;8.10;3.80;;;;;;;10.73;73.89;99281.72;109202;1275;139335;-63
2022/05/15 04:56:04;;;;;;;7.10;3.80;;;;;;;10.79;73.67;99281.16;109345;1274;22430;-63
2022/05/15 04:58:33;;;;;;;8.70;4.00;;;;;;;10.84;73.86;99286.23;109415;1274;23202;-63
2022/05/15 05:01:01;;;;;;;20.80;4.10;;;;;;;10.89;73.46;99292.81;109340;1274;139111;-63
2022/05/15 05:03:29;;;;;;;10.50;4.00;;;;;;;10.94;73.22;99293.65;109327;1277;23113;-63
2022/05/15 05:05:57;;;;;;;10.00;3.90;;;;;;;11.00;73.06;99293.93;109337;1274;139054;-63
2022/05/15 05:08:25;;;;;;;8.00;3.60;;;;;;;11.11;73.26;99300.59;109314;1275;22431;-63
2022/05/15 05:10:53;;;;;;;10.50;3.60;;;;;;;11.31;72.94;99297.00;109348;1276;22402;-64
2022/05/15 05:13:21;;;;;;;8.20;3.10;;;;;;;11.59;72.46;99298.00;109225;1275;137991;-64
2022/05/15 05:15:50;;;;;;;8.00;3.50;;;;;;;11.88;71.75;99297.36;109306;1276;22456;-63
2022/05/15 05:18:18;;;;;;;9.80;3.30;;;;;;;12.09;70.99;99295.40;109266;1274;138160;-63
2022/05/15 05:20:46;;;;;;;7.80;3.60;;;;;;;12.25;70.36;99293.00;109435;1274;22354;-63
2022/05/15 05:23:14;;;;;;;6.70;3.10;;;;;;;12.39;69.78;99290.63;109378;1274;22409;-64
2022/05/15 05:25:42;;;;;;;8.00;3.30;;;;;;;12.49;69.16;99289.08;109168;1274;138250;-63
2022/05/15 05:28:12;;;;;;;7.50;4.00;;;;;;;12.54;68.42;99287.33;109318;1276;23189;-62
2022/05/15 05:30:40;;;;;;;8.90;3.60;;;;;;;12.57;68.17;99279.33;109241;1275;138382;-63
2022/05/15 05:33:08;;;;;;;7.10;3.20;;;;;;;12.59;67.99;99277.90;109324;1275;23051;-63
2022/05/15 05:35:37;;;;;;;9.40;3.30;;;;;;;12.62;67.63;99280.58;109243;1277;138216;-63
2022/05/15 05:38:05;;;;;;;6.60;2.70;;;;;;;12.64;67.32;99283.09;109234;1277;22235;-64
2022/05/15 05:40:33;;;;;;;9.00;3.30;;;;;;;12.66;67.07;99287.41;109275;1275;22618;-64
2022/05/15 05:43:02;;;;;;;11.10;3.50;;;;;;;12.69;67.16;99287.90;109144;1277;138197;-64
2022/05/15 05:45:30;;;;;;;10.90;3.90;;;;;;;12.70;67.07;99284.27;109318;1275;22482;-63
2022/05/15 05:47:58;;;;;;;7.10;3.10;;;;;;;12.72;67.11;99285.73;109225;1275;139557;-63
2022/05/15 05:50:26;;;;;;;13.10;3.70;;;;;;;12.75;66.88;99291.59;109292;1276;22441;-63
2022/05/15 05:52:54;;;;;;;8.10;3.40;;;;;;;12.76;66.66;99290.00;109234;1277;22421;-63
2022/05/15 05:55:23;;;;;;;7.30;2.90;;;;;;;12.78;66.84;99290.87;109296;1274;138795;-63
2022/05/15 05:57:52;;;;;;;7.40;2.80;;;;;;;12.81;66.73;99293.38;109465;1274;22430;-64
2022/05/15 06:00:25;;;;;;;10.80;3.70;;;;;;;12.82;66.56;99292.05;109307;1274;139108;-63
2022/05/15 06:04:39;;;;;;;6.10;2.90;;;;;;;12.85;66.31;99297.29;109441;1274;22338;-63
2022/05/15 06:05:43;;;;;;;7.70;2.80;;;;;;;12.88;66.37;99305.59;109315;1274;139817;-63
2022/05/15 06:08:11;;;;;;;10.20;3.70;;;;;;;12.89;66.34;99304.29;109294;1277;22428;-63
2022/05/15 06:10:40;;;;;;;6.90;2.80;;;;;;;12.89;66.14;99305.32;109299;1275;23482;-64
2022/05/15 06:13:08;;;;;;;5.50;2.90;;;;;;;12.88;65.94;99310.79;109300;1274;137610;-63
2022/05/15 06:15:36;;;;;;;8.30;3.30;;;;;;;12.84;65.86;99311.69;109340;1274;23254;-63
2022/05/15 06:18:05;;;;;;;8.80;3.00;;;;;;;12.81;65.89;99310.02;109318;1274;137536;-63
2022/05/15 06:20:33;;;;;;;5.50;2.70;;;;;;;12.78;65.94;99305.64;109307;1277;22649;-63
2022/05/15 06:23:02;;;;;;;11.10;3.10;;;;;;;12.73;66.11;99306.19;109275;1274;22434;-64
2022/05/15 06:25:30;;;;;;;7.60;3.20;;;;;;;12.71;66.11;99305.26;109303;1274;137774;-64
2022/05/15 06:27:58;;;;;;;13.50;3.80;;;;;;;12.70;66.27;99300.13;109426;1274;22235;-64
2022/05/15 06:30:27;;;;;;;6.90;3.60;;;;;;;12.68;66.54;99300.97;109275;1274;137723;-64
2022/05/15 06:32:55;;;;;;;8.10;3.80;;;;;;;12.67;66.31;99298.52;109331;1275;22440;-64
2022/05/15 06:35:23;;;;;;;4.80;2.90;;;;;;;12.68;66.68;99298.08;109351;1275;22458;-64
2022/05/15 06:37:51;;;;;;;13.60;4.10;;;;;;;12.68;66.62;99298.67;109306;1274;138477;-64
2022/05/15 06:40:19;;;;;;;8.20;3.00;;;;;;;12.69;66.79;99299.04;109435;1274;22451;-64
2022/05/15 06:43:06;;;;;;;8.80;3.20;;;;;;;12.71;66.58;99297.77;109196;1277;137994;-64
2022/05/15 06:45:35;;;;;;;9.30;3.30;;;;;;;12.73;66.86;99298.75;109411;1274;22428;-64
2022/05/15 06:48:03;;;;;;;9.10;3.00;;;;;;;12.74;66.76;99299.79;109320;1274;138184;-64
2022/05/15 06:50:31;;;;;;;7.00;2.90;;;;;;;12.74;66.65;99300.55;109439;1274;22464;-63
2022/05/15 06:52:59;;;;;;;9.00;2.90;;;;;;;12.74;66.59;99303.13;109436;1274;22536;-63
2022/05/15 06:55:27;;;;;;;10.50;2.70;;;;;;;12.75;66.47;99298.09;109283;1274;139072;-63
2022/05/15 06:57:56;;;;;;;5.40;3.10;;;;;;;12.75;66.53;99293.98;109410;1274;22439;-65
2022/05/15 07:00:27;;;;;;;6.90;3.00;;;;;;;12.79;66.90;99288.84;109328;1274;137994;-65
2022/05/15 07:02:55;;;;;;;7.10;3.30;;;;;;;12.84;66.97;99284.95;109410;1274;22420;-65
2022/05/15 07:05:25;;;;;;;6.40;3.40;;;;;;;12.94;67.03;99285.79;109426;1274;23405;-64
2022/05/15 07:07:55;;;;;;;6.50;3.20;;;;;;;13.04;66.79;99282.52;109198;1274;137636;-64
2022/05/15 07:10:25;;;;;;;8.90;2.80;;;;;;;13.14;66.50;99279.32;109446;1273;22581;-64
2022/05/15 07:12:53;;;;;;;7.60;3.40;;;;;;;13.23;65.94;99272.80;109369;1274;138619;-64
2022/05/15 07:15:21;;;;;;;4.80;2.60;;;;;;;13.29;65.99;99272.36;109458;1274;23226;-64
2022/05/15 07:17:49;;;;;;;12.30;3.00;;;;;;;13.37;66.41;99273.25;109334;1274;138866;-64
2022/05/15 07:20:17;;;;;;;9.60;3.00;;;;;;;13.49;65.83;99271.16;109423;1274;22812;-64
2022/05/15 07:22:48;;;;;;;4.90;2.70;;;;;;;13.60;65.49;99269.72;109368;1276;23355;-65
2022/05/15 07:25:16;;;;;;;8.10;3.00;;;;;;;13.71;65.53;99273.64;109306;1274;137395;-65
2022/05/15 07:27:44;;;;;;;7.90;2.70;;;;;;;13.83;64.94;99271.27;109339;1274;23551;-65
2022/05/15 07:30:13;;;;;;;9.20;2.90;;;;;;;13.94;64.32;99267.73;109334;1274;138618;-64
2022/05/15 07:32:44;;;;;;;5.60;2.90;;;;;;;14.02;63.56;99265.61;109414;1274;22437;-65
2022/05/15 07:35:12;;;;;;;7.30;3.20;;;;;;;14.04;63.08;99256.07;109405;1274;22444;-64
2022/05/15 07:37:41;;;;;;;9.40;2.80;;;;;;;14.06;62.80;99255.02;109348;1274;137144;-65
2022/05/15 07:40:10;;;;;;;10.50;2.90;;;;;;;14.12;63.16;99258.80;109447;1274;22437;-65
2022/05/15 07:42:39;;;;;;;8.60;2.70;;;;;;;14.23;62.91;99255.59;109330;1274;138465;-65
2022/05/15 07:45:08;;;;;;;8.70;3.50;;;;;;;14.37;61.86;99258.35;109448;1274;22409;-65
2022/05/15 07:47:37;;;;;;;5.50;2.80;;;;;;;14.50;61.28;99243.98;109312;1274;138631;-65
2022/05/15 07:50:05;;;;;;;4.40;2.30;;;;;;;14.56;60.79;99240.69;109401;1274;22580;-65
2022/05/15 07:52:34;;;;;;;6.80;2.40;;;;;;;14.67;60.69;99247.00;109341;1275;22374;-65
2022/05/15 07:55:03;;;;;;;8.70;2.60;;;;;;;14.74;60.81;99246.02;109326;1274;138271;-65
2022/05/15 07:57:32;;;;;;;10.90;2.30;;;;;;;14.81;60.74;99252.42;109378;1274;22413;-65
2022/05/15 08:00:05;;;;;;;8.80;2.70;;;;;;;14.89;60.06;99249.91;109283;1275;138639;-65
2022/05/15 08:02:39;;;;;;;20.00;4.10;;;;;;;14.95;59.71;99247.15;109439;1274;23356;-65
2022/05/15 08:08:03;;;;;;;12.20;2.50;;;;;;;15.05;59.04;99249.65;109308;1273;138483;-65
2022/05/15 08:10:36;;;;;;;14.40;2.50;;;;;;;15.08;58.86;99251.36;109406;1274;22425;-64
2022/05/15 08:13:07;;;;;;;5.20;2.10;;;;;;;15.11;58.73;99248.36;109201;1274;137530;-64
2022/05/15 08:15:36;;;;;;;12.10;2.60;;;;;;;15.15;58.56;99243.86;109434;1274;22551;-66
2022/05/15 08:23:44;;;;;;;12.50;2.50;;;;;;;15.20;57.51;99235.84;109319;1276;22406;-65
2022/05/15 08:26:12;;;;;;;6.80;2.10;;;;;;;15.21;56.90;99238.46;109298;1274;137801;-63
2022/05/15 08:28:40;;;;;;;14.20;2.50;;;;;;;15.21;56.48;99235.45;109430;1274;22378;-63
2022/05/15 08:31:08;;;;;;;7.70;2.40;;;;;;;15.23;56.04;99235.27;109276;1274;138421;-63
2022/05/15 08:33:37;;;;;;;7.70;2.30;;;;;;;15.23;55.45;99234.05;109304;1276;22522;-63
2022/05/15 08:36:06;;;;;;;7.50;2.00;;;;;;;15.25;54.54;99233.86;109073;1276;138620;-63
2022/05/15 08:38:34;;;;;;;8.20;2.70;;;;;;;15.25;53.78;99228.37;109250;1275;22993;-63
2022/05/15 08:41:08;;;;;;;8.20;2.40;;;;;;;15.25;53.57;99228.91;109268;1275;22592;-63
2022/05/15 08:43:44;;;;;;;4.70;1.90;;;;;;;15.27;53.73;99228.17;109213;1275;139226;-63
2022/05/15 08:46:30;;;;;;;6.00;2.90;;;;;;;15.33;54.73;99224.63;109375;1274;23210;-64
2022/05/15 08:49:06;;;;;;;14.20;2.20;;;;;;;15.46;54.85;99221.30;109242;1275;137410;-63
2022/05/15 08:51:35;;;;;;;11.50;2.80;;;;;;;15.64;54.28;99216.85;109251;1274;23660;-64
2022/05/15 08:54:05;;;;;;;15.50;3.40;;;;;;;15.82;53.74;99223.14;109207;1274;139060;-64
2022/05/15 08:56:36;;;;;;;12.20;2.30;;;;;;;15.95;52.55;99214.13;106658;1276;22582;-64
2022/05/15 08:59:07;;;;;;;6.50;2.10;;;;;;;16.08;51.62;99218.80;109309;1275;24123;-64
2022/05/15 09:01:35;;;;;;;13.40;2.50;;;;;;;16.11;51.07;99221.55;108989;1277;140044;-65
2022/05/15 09:04:03;;;;;;;12.60;2.40;;;;;;;16.12;51.15;99219.17;109115;1277;22440;-64
2022/05/15 09:06:50;;;;;;;17.10;2.40;;;;;;;16.13;51.05;99218.34;109266;1274;138449;-64
2022/05/15 09:09:25;;;;;;;13.50;2.30;;;;;;;16.11;50.51;99230.69;109408;1272;23092;-64
2022/05/15 09:12:14;;;;;;;6.90;1.90;;;;;;;16.03;51.14;99229.11;109268;1274;139107;-64
2022/05/15 09:15:14;;;;;;;12.40;3.00;;;;;;;15.94;52.50;99227.11;109392;1274;22400;-64
2022/05/15 09:18:03;;;;;;;9.70;2.30;;;;;;;15.87;53.13;99226.45;109323;1274;23255;-65
2022/05/15 09:20:47;;;;;;;6.40;2.20;;;;;;;15.83;52.85;99220.77;109284;1274;138663;-65
2022/05/15 09:23:34;;;;;;;8.80;2.30;;;;;;;15.83;52.19;99216.70;109406;1274;22504;-63
2022/05/15 09:26:14;;;;;;;7.70;2.30;;;;;;;15.89;50.53;99213.78;109263;1274;137775;-63
2022/05/15 09:28:45;;;;;;;4.30;2.00;;;;;;;15.95;50.27;99215.29;109453;1274;22540;-63
2022/05/15 09:31:22;;;;;;;6.50;2.40;;;;;;;16.00;50.29;99212.05;109277;1274;138113;-64
2022/05/15 09:33:56;;;;;;;10.00;2.00;;;;;;;16.02;49.82;99220.82;109427;1274;22907;-65
2022/05/15 09:36:33;;;;;;;5.70;2.30;;;;;;;16.03;49.54;99219.30;109243;1274;139746;-65
2022/05/15 09:39:13;;;;;;;6.00;2.30;;;;;;;16.02;49.38;99217.98;109420;1274;22264;-67
2022/05/15 09:44:28;;;;;;;8.20;2.20;;;;;;;15.97;49.34;99213.52;109252;1274;138298;-64
2022/05/15 09:47:01;;;;;;;7.50;3.20;;;;;;;15.96;49.99;99213.69;109053;1274;503915;-64
2022/05/15 09:50:59;;;;;;;7.00;2.30;;;;;;;16.02;50.41;99211.94;101433;1312;564017;-64
2022/05/15 09:53:36;;;;;;;14.90;3.90;;;;;;;16.06;50.09;99203.38;103866;1287;24308;-64
2022/05/15 09:56:21;;;;;;;10.40;3.20;;;;;;;16.15;49.55;99199.28;103791;1287;137856;-65
2022/05/15 09:58:55;;;;;;;16.40;5.40;;;;;;;16.26;49.20;99199.67;108314;1287;22480;-66
2022/05/15 10:01:23;;;;;;;17.60;9.80;;;;;;;16.37;48.29;99201.19;108123;1287;137765;-65
2022/05/15 10:03:53;;;;;;;21.50;13.50;;;;;;;16.40;47.56;99201.11;107926;1284;408278;-65
2022/05/15 10:06:22;;;;;;;10.60;3.80;;;;;;;16.40;47.99;99204.60;108363;1284;22450;-66
2022/05/15 10:09:04;;;;;;;7.60;2.70;;;;;;;16.43;48.33;99201.79;108245;1286;138496;-65
2022/05/15 10:11:35;;;;;;;13.80;3.20;;;;;;;16.48;48.14;99203.37;108355;1284;23715;-63
2022/05/15 10:14:02;;;;;;;6.90;2.50;;;;;;;16.53;47.85;99192.83;108268;1283;138351;-65
2022/05/15 10:16:33;;;;;;;5.90;2.00;;;;;;;16.58;48.19;99194.31;108322;1286;22434;-63
2022/05/15 10:19:24;;;;;;;9.10;2.60;;;;;;;16.67;48.15;99193.46;108173;1286;137672;-63
2022/05/15 10:22:07;;;;;;;10.50;2.20;;;;;;;16.78;47.10;99189.55;107875;1290;23302;-64
2022/05/15 10:24:38;;;;;;;5.40;2.00;;;;;;;16.87;46.61;99187.94;107758;1290;137330;-65
2022/05/15 10:27:10;;;;;;;42.90;4.40;;;;;;;17.01;46.52;99182.67;104207;1292;22662;-65
2022/05/15 10:30:08;;;;;;;6.80;2.00;;;;;;;17.11;45.99;99187.48;104188;1284;24038;-65
2022/05/15 10:32:41;;;;;;;8.10;2.50;;;;;;;17.13;45.40;99189.96;104207;1283;138301;-65
2022/05/15 10:35:11;;;;;;;4.80;2.10;;;;;;;17.08;45.09;99192.98;104006;1284;25730;-65
2022/05/15 10:38:09;;;;;;;8.10;2.50;;;;;;;17.00;44.94;99192.94;103955;1284;137187;-65
2022/05/15 10:40:45;;;;;;;10.40;2.90;;;;;;;16.86;45.53;99197.31;103435;1291;24437;-65
2022/05/15 10:43:39;;;;;;;11.20;2.70;;;;;;;16.72;46.30;99205.92;103372;1290;139263;-64
2022/05/15 10:46:20;;;;;;;8.60;2.90;;;;;;;16.63;47.95;99210.98;103421;1291;24016;-64
2022/05/15 10:49:01;;;;;;;10.60;3.30;;;;;;;16.63;49.02;99213.29;107410;1291;138444;-65
2022/05/15 10:51:38;;;;;;;9.30;3.80;;;;;;;16.70;49.30;99212.06;107530;1292;22501;-65
2022/05/15 10:57:45;;;;;;;7.60;3.50;;;;;;;16.66;47.93;99225.07;107555;1291;22366;-65
2022/05/15 11:00:33;;;;;;;12.10;5.30;;;;;;;16.51;48.25;99218.06;107136;1294;22552;-65
2022/05/15 11:03:13;;;;;;;12.80;4.10;;;;;;;16.43;49.24;99222.19;107095;1294;138278;-65
2022/05/15 11:06:08;;;;;;;7.90;2.80;;;;;;;16.50;49.91;99217.64;107078;1294;22470;-65
2022/05/15 11:09:17;;;;;;;13.00;3.70;;;;;;;16.65;49.55;99216.28;107211;1294;137014;-65
2022/05/15 11:11:59;;;;;;;9.10;3.20;;;;;;;16.77;49.47;99213.72;107064;1297;22672;-65
2022/05/15 11:14:38;;;;;;;15.20;3.20;;;;;;;16.83;48.93;99211.09;106924;1297;137563;-65
2022/05/15 11:17:09;;;;;;;;;;;;;;;16.88;48.66;99217.73;107264;1290;22643;-65
2022/05/15 11:19:39;;;;;;;15.90;3.10;;;;;;;16.92;47.65;99211.33;107803;1289;123755;-65
2022/05/15 11:22:27;;;;;;;12.80;3.50;;;;;;;16.89;47.33;99216.83;107586;1290;23713;-65
2022/05/15 11:24:57;;;;;;;11.70;3.50;;;;;;;16.88;47.54;99210.15;107887;1290;23190;-65
2022/05/15 11:27:34;;;;;;;9.10;3.50;;;;;;;16.94;48.14;99205.88;107774;1289;138073;-65
2022/05/15 11:30:13;;;;;;;10.10;3.10;;;;;;;17.09;47.73;99206.84;107874;1289;22570;-65
2022/05/15 11:32:45;;;;;;;10.80;3.00;;;;;;;17.17;46.69;99204.95;107572;1290;137295;-65
2022/05/15 11:35:20;;;;;;;7.50;2.20;;;;;;;17.20;45.63;99202.45;107764;1290;22704;-64
2022/05/15 11:38:17;;;;;;;7.90;2.40;;;;;;;17.21;45.12;99199.96;103744;1284;138150;-65
2022/05/15 11:40:48;;;;;;;13.10;3.80;;;;;;;17.18;45.38;99203.75;104088;1284;24106;-65
2022/05/15 11:43:26;;;;;;;5.80;2.50;;;;;;;17.21;45.29;99212.85;103842;1284;140303;-64
2022/05/15 11:45:55;;;;;;;;;;;;;;;17.20;45.45;99202.91;104060;1284;25200;-64
2022/05/15 11:48:24;;;;;;;7.50;2.50;;;;;;;17.21;44.87;99209.70;108633;1279;23444;-64
2022/05/15 11:51:06;;;;;;;11.60;2.50;;;;;;;17.18;44.57;99207.73;108853;1278;137325;-65
2022/05/15 11:53:48;;;;;;;11.00;3.70;;;;;;;17.10;43.42;99213.86;109118;1277;23358;-64
2022/05/15 11:56:27;;;;;;;10.00;2.70;;;;;;;16.99;43.41;99206.17;108735;1279;137314;-64
2022/05/15 11:58:57;;;;;;;7.50;2.50;;;;;;;16.95;43.93;99207.09;108985;1279;22405;-65
2022/05/15 12:01:25;;;;;;;11.40;2.80;;;;;;;16.96;44.54;99200.67;108748;1279;137623;-65